Little Rock Air Force Base Jacksonville US
ICAO: KLRF
IATA: LRF
Category: Medium
Scheduled Services: No

Elevation: 311 ft
TransAlt. 18000 ft.

Airport Communications:
APP/DEP:119.5
ATIS:25.11
CLNC DEL:25.35
GND:132.8
ANG COMD POST:143.8
PMSV METRO:23.98
COMD POST:34.94
PTD:37.22
TWR:120.6

KLRF Zoom In..

If you have problems with the map follow the link
https://www.worldairports.se/pages/airport.php?
ICAO=KLRF

Runways:

(A) RW 07 length 12000 ft width 200 ft
---- / hdg 70

(B) RW 25 length 12000 ft width 200 ft
ILS 109.90 / hdg 250

Location; KLRF
Day. 20 / Time. 20.56 Zulu
* Altimeter: 29.91
* Temperature: 12° c. 53.6°f.
* Wind from: 320° Speed 05 kn.
Dewpoint: 03° c.
Visibility: 10 Statute Miles.
Clouds: Scattered 3000 ft.

KLRF 202056Z 32005KT 10SM SCT030 12/03 A2991 RMK AO2A SLP132 60000 T01150030 55004 $


Wind From 320°
Speed 05 kn.

 
 
jpsmedia.com for Web Design worldairports.se 2019   terms of use